Kingsville, MO (64061)

7:53 AM CDT on May 27, 2015 (GMT -0500)
Lone Jack rural residence | | Change Station
CLOSE
Current Station
Personal Weather Station
Location: Lone Jack, MO
Elevation: 1020 ft
Nearby Weather Stations
Active Advisory: Flood Warning

Elev 1020 ft 38.85 °N, 94.18 °W | Updated 42 seconds ago

Clear
Clear
65.7 °F
Feels Like 65.7 °F
N
0.0
Wind Variable Wind from SW
Gusts 0.0 mph

Today
High -- | Low -- °F
--% Chance of Precip.
Yesterday
High -- | Low -- °F
Precip. -- in
5:55 AM 8:32 PM
Waxing Gibbous, 67% visible
Pressure 30.05 in
Visibility 10.0 miles
Clouds Clear
Dew Point 60 °F
Humidity 81%
Rainfall 0.00 in
Snow Depth Not available.
UV 0 out of 12
Pollen 8.20 out of 12
Air Quality Not available.
Flu Activity Sporadic
METAR KLXT 271153Z AUTO 00000KT 10SM CLR 16/13 A3006 RMK AO2 SLP174 70001 T01610133 10189 20156 53022

More Conditions Fewer Conditions

Pressure 30.05 in
Visibility 10.0 miles
Clouds Clear
Dew Point 60 °F
Humidity 81%
Rainfall 0.00 in
Snow Depth Not available.
UV 0 out of 12
Pollen 8.20 out of 12
Air Quality Not available.
Flu Activity Sporadic
METAR KLXT 271153Z AUTO 00000KT 10SM CLR 16/13 A3006 RMK AO2 SLP174 70001 T01610133 10189 20156 53022

More Conditions Fewer Conditions

10-Day Weather Forecast

Almanac

Astronomy

May. 27, 2015 Rise Set
Actual Time
Civil Twilight
Nautical Twilight
Astronomical Twilight
Moon
Length of Visible Light
Length of Day
Tomorrow will be .
, % of the Moon is Illuminated

Today's Extremes

State Highs State Lows

Community

WunderPhotos

Upload Photos

1,824,661 photos uploaded!

WunderBlogs® & News

Nearby

Air Quality

  Air Quality AQ Index Pollutant
Not available.

Snow Depth

Station Depth Elevation

Earthquake Activity

City Distance Mag. Time & Date
Minimum magnitude displayed is 2.5.

Coastal Water Temperatures

Place Temperature

Stations

Nearby Weather Stations

Station Location Temp. Windchill Dew Point Humidity Wind Precip. Elev Updated Type
                   
Flood Warning
Statement as of 5:46 AM CDT on May 27, 2015

The Flood Warning is cancelled for
the Big Creek at Blairstown.
* At 5:00 am Wednesday the stage was 19.7 feet.
* Flood stage is 20.0 feet.
* Fell below flood stage at 3:12 am Wednesday.
* Forecast... the river will continue to fall to 16.8 feet by Thursday
morning.


                       Latest
location fs stage day/time forecast

Big Creek
Blairstown 20 19.7 Wed 05 am 19.3 this morning


lat... Lon 3873 9422 3875 9416 3857 9394 3840 9384 3840 9391